createdAt,value
2023-03-31T00:02:09.000Z,9.97
2023-03-31T00:07:03.000Z,9.85
2023-03-31T00:11:57.000Z,9.71
2023-03-31T00:16:51.000Z,9.57
2023-03-31T00:21:45.000Z,9.44
2023-03-31T00:26:38.000Z,9.36
2023-03-31T00:31:33.000Z,9.33
2023-03-31T00:36:25.000Z,9.32
2023-03-31T00:41:19.000Z,9.41
2023-03-31T00:46:11.000Z,9.37
2023-03-31T00:51:06.000Z,9.36
2023-03-31T00:55:59.000Z,9.35
2023-03-31T01:00:52.000Z,9.33
2023-03-31T01:05:44.000Z,9.32
2023-03-31T01:10:36.000Z,9.31
2023-03-31T01:15:32.000Z,9.29
2023-03-31T01:20:25.000Z,9.39
2023-03-31T01:25:19.000Z,9.4
2023-03-31T01:30:13.000Z,9.56
2023-03-31T01:35:06.000Z,9.61
2023-03-31T01:40:00.000Z,9.67
2023-03-31T01:44:54.000Z,9.57
2023-03-31T01:49:48.000Z,9.59
2023-03-31T01:54:41.000Z,9.58
2023-03-31T01:59:34.000Z,9.6
2023-03-31T02:04:28.000Z,9.62
2023-03-31T02:09:25.000Z,9.69
2023-03-31T02:14:14.000Z,9.66
2023-03-31T02:19:07.000Z,9.61
2023-03-31T02:24:01.000Z,9.61
2023-03-31T02:28:55.000Z,9.55
2023-03-31T02:33:49.000Z,9.49
2023-03-31T02:38:43.000Z,9.4
2023-03-31T02:43:37.000Z,9.4
2023-03-31T02:48:31.000Z,9.42
2023-03-31T02:53:26.000Z,9.47
2023-03-31T02:58:19.000Z,9.55
2023-03-31T03:03:13.000Z,9.58
2023-03-31T03:08:07.000Z,9.57
2023-03-31T03:13:01.000Z,9.6
2023-03-31T03:17:52.000Z,9.63
2023-03-31T03:22:46.000Z,9.77
2023-03-31T03:27:40.000Z,9.83
2023-03-31T03:32:35.000Z,9.77
2023-03-31T03:37:31.000Z,9.71
2023-03-31T03:42:22.000Z,9.67
2023-03-31T03:47:16.000Z,9.62
2023-03-31T03:52:10.000Z,9.61
2023-03-31T03:57:04.000Z,9.73
2023-03-31T04:01:58.000Z,9.72
2023-03-31T04:06:51.000Z,9.76
2023-03-31T04:11:45.000Z,9.76
2023-03-31T04:16:39.000Z,9.71
2023-03-31T04:21:34.000Z,9.66
2023-03-31T04:26:28.000Z,9.62
2023-03-31T04:31:22.000Z,9.65
2023-03-31T04:36:16.000Z,9.61
2023-03-31T04:41:09.000Z,9.48
2023-03-31T04:46:05.000Z,9.35
2023-03-31T04:50:54.000Z,9.2
2023-03-31T04:55:48.000Z,9.09
2023-03-31T05:00:42.000Z,8.95
2023-03-31T05:05:36.000Z,8.9
2023-03-31T05:10:30.000Z,8.9
2023-03-31T05:15:24.000Z,8.92
2023-03-31T05:20:18.000Z,8.87
2023-03-31T05:25:11.000Z,8.93
2023-03-31T05:30:05.000Z,9.03
2023-03-31T05:34:56.000Z,8.87
2023-03-31T05:39:50.000Z,8.85
2023-03-31T05:44:44.000Z,8.83
2023-03-31T05:49:38.000Z,8.62
2023-03-31T05:54:33.000Z,8.52
2023-03-31T05:59:27.000Z,8.43
2023-03-31T06:04:18.000Z,8.42
2023-03-31T06:09:13.000Z,8.41
2023-03-31T06:14:05.000Z,8.35
2023-03-31T06:18:57.000Z,8.38
2023-03-31T06:23:51.000Z,8.41
2023-03-31T06:28:45.000Z,8.43
2023-03-31T06:33:39.000Z,8.38
2023-03-31T06:38:33.000Z,8.43
2023-03-31T06:43:27.000Z,8.68
2023-03-31T06:48:22.000Z,8.89
2023-03-31T06:53:15.000Z,8.87
2023-03-31T06:58:09.000Z,8.95
2023-03-31T07:03:02.000Z,9.03
2023-03-31T07:07:55.000Z,9.04
2023-03-31T07:12:50.000Z,8.9
2023-03-31T07:17:44.000Z,8.92
2023-03-31T07:22:41.000Z,9.08
2023-03-31T07:27:31.000Z,9.4
2023-03-31T07:32:26.000Z,9.68
2023-03-31T07:37:20.000Z,9.75
2023-03-31T07:42:15.000Z,10.2
2023-03-31T07:47:06.000Z,10.32
2023-03-31T07:52:00.000Z,10.43
2023-03-31T07:56:53.000Z,10.33
2023-03-31T08:01:48.000Z,10.5
2023-03-31T08:06:42.000Z,10.54
2023-03-31T08:11:36.000Z,10.62
2023-03-31T08:16:31.000Z,10.63
2023-03-31T08:21:25.000Z,10.53
2023-03-31T08:26:19.000Z,10.73
2023-03-31T08:31:12.000Z,11.73
2023-03-31T08:36:06.000Z,11.59
2023-03-31T08:41:01.000Z,11.38
2023-03-31T08:46:00.000Z,11.13
2023-03-31T08:50:47.000Z,11.05
2023-03-31T08:55:45.000Z,10.78
2023-03-31T09:00:35.000Z,10.52
2023-03-31T09:05:30.000Z,10.54
2023-03-31T09:10:27.000Z,10.36
2023-03-31T09:15:18.000Z,10.26
2023-03-31T09:20:17.000Z,10.44
2023-03-31T09:25:06.000Z,10.43
2023-03-31T09:30:00.000Z,10.54
2023-03-31T09:34:53.000Z,10.79
2023-03-31T09:39:46.000Z,10.85
2023-03-31T09:44:40.000Z,11.09
2023-03-31T09:49:34.000Z,11.38
2023-03-31T09:54:29.000Z,11.26
2023-03-31T09:59:24.000Z,11.26
2023-03-31T10:04:17.000Z,10.74
2023-03-31T10:09:11.000Z,10.13
2023-03-31T10:14:05.000Z,9.98
2023-03-31T10:18:56.000Z,9.92
2023-03-31T10:23:49.000Z,9.64
2023-03-31T10:28:43.000Z,9.82
2023-03-31T10:33:35.000Z,9.97
2023-03-31T10:38:28.000Z,11.05
2023-03-31T10:43:23.000Z,11.56
2023-03-31T10:48:18.000Z,11.19
2023-03-31T10:53:11.000Z,10.93
2023-03-31T10:58:11.000Z,10.76
2023-03-31T11:02:58.000Z,10.67
2023-03-31T11:07:52.000Z,10.53
2023-03-31T11:12:46.000Z,10.74
2023-03-31T11:17:39.000Z,10.77
2023-03-31T11:22:33.000Z,10.96
2023-03-31T11:27:28.000Z,10.88
2023-03-31T11:32:22.000Z,10.73
2023-03-31T11:37:16.000Z,11.44
2023-03-31T11:42:10.000Z,12.56
2023-03-31T11:47:06.000Z,11.73
2023-03-31T11:52:00.000Z,11.73
2023-03-31T11:56:52.000Z,11.46
2023-03-31T12:01:46.000Z,11.92
2023-03-31T12:06:40.000Z,11.9
2023-03-31T12:11:34.000Z,12.13
2023-03-31T12:16:29.000Z,12.91
2023-03-31T12:21:22.000Z,13.71
2023-03-31T12:26:17.000Z,14.04
2023-03-31T12:31:12.000Z,14.82
2023-03-31T12:36:07.000Z,16.32
2023-03-31T12:41:03.000Z,15.82
2023-03-31T12:45:58.000Z,14.73
2023-03-31T12:50:52.000Z,15.68
2023-03-31T12:55:45.000Z,13.79
2023-03-31T13:00:39.000Z,13.86
2023-03-31T13:05:33.000Z,17.13
2023-03-31T13:10:29.000Z,16.47
2023-03-31T13:15:24.000Z,16.82
2023-03-31T13:20:18.000Z,17.38
2023-03-31T13:25:13.000Z,15.61
2023-03-31T13:30:06.000Z,15.68
2023-03-31T13:35:02.000Z,14.24
2023-03-31T13:39:52.000Z,14.1
2023-03-31T13:44:46.000Z,16.23
2023-03-31T13:49:39.000Z,15.31
2023-03-31T13:54:33.000Z,15.87
2023-03-31T13:59:27.000Z,14.59
2023-03-31T14:04:21.000Z,13.79
2023-03-31T14:09:15.000Z,13.54
2023-03-31T14:14:08.000Z,12.85
2023-03-31T14:19:02.000Z,12.74
2023-03-31T14:23:56.000Z,12.58
2023-03-31T14:28:49.000Z,12.04
2023-03-31T14:33:43.000Z,11.19
2023-03-31T14:38:37.000Z,10.66
2023-03-31T14:43:31.000Z,10.53
2023-03-31T14:48:25.000Z,10.55
2023-03-31T14:53:21.000Z,10.62
2023-03-31T14:58:14.000Z,10.66
2023-03-31T15:03:09.000Z,10.69
2023-03-31T15:08:01.000Z,10.9
2023-03-31T15:12:56.000Z,10.99
2023-03-31T15:17:51.000Z,11.07
2023-03-31T15:22:44.000Z,11.08
2023-03-31T15:27:38.000Z,11.04
2023-03-31T15:32:31.000Z,11.07
2023-03-31T15:37:25.000Z,11.08
2023-03-31T15:42:18.000Z,11.03
2023-03-31T15:47:11.000Z,10.86
2023-03-31T15:52:04.000Z,10.87
2023-03-31T15:56:58.000Z,10.94
2023-03-31T16:01:53.000Z,10.94
2023-03-31T16:06:45.000Z,11.02
2023-03-31T16:11:40.000Z,11.07
2023-03-31T16:16:33.000Z,11.13
2023-03-31T16:21:26.000Z,11.16
2023-03-31T16:26:21.000Z,11.23
2023-03-31T16:31:15.000Z,11.31
2023-03-31T16:36:09.000Z,11.25
2023-03-31T16:41:09.000Z,11.3
2023-03-31T16:46:00.000Z,11.31
2023-03-31T16:50:52.000Z,11.31
2023-03-31T16:55:45.000Z,11.28
2023-03-31T17:00:39.000Z,11.31
2023-03-31T17:05:33.000Z,11.38
2023-03-31T17:10:28.000Z,11.64
2023-03-31T17:15:22.000Z,11.44
2023-03-31T17:20:13.000Z,11.29
2023-03-31T17:25:08.000Z,11.19
2023-03-31T17:30:01.000Z,11.1
2023-03-31T17:34:56.000Z,10.97
2023-03-31T17:39:50.000Z,11
2023-03-31T17:44:43.000Z,10.85
2023-03-31T17:49:38.000Z,10.54
2023-03-31T17:54:32.000Z,10.38
2023-03-31T17:59:26.000Z,10.29
2023-03-31T18:04:19.000Z,10.27
2023-03-31T18:09:13.000Z,10.25
2023-03-31T18:14:07.000Z,10.28
2023-03-31T18:19:01.000Z,10.27
2023-03-31T18:23:55.000Z,10.3
2023-03-31T18:28:49.000Z,10.25
2023-03-31T18:33:40.000Z,10.19
2023-03-31T18:38:35.000Z,9.91
2023-03-31T18:43:29.000Z,9.77
2023-03-31T18:48:23.000Z,9.71
2023-03-31T18:53:16.000Z,9.68
2023-03-31T18:58:10.000Z,9.69
2023-03-31T19:03:05.000Z,9.77
2023-03-31T19:07:59.000Z,9.72
2023-03-31T19:12:51.000Z,9.41
2023-03-31T19:17:45.000Z,9.15
2023-03-31T19:22:39.000Z,9.04
2023-03-31T19:27:33.000Z,8.97
2023-03-31T19:32:27.000Z,8.93
2023-03-31T19:37:21.000Z,8.94
2023-03-31T19:42:15.000Z,8.9
2023-03-31T19:47:09.000Z,8.89
2023-03-31T19:52:03.000Z,8.98
2023-03-31T19:56:57.000Z,9
2023-03-31T20:01:51.000Z,9.15
2023-03-31T20:06:45.000Z,9.15
2023-03-31T20:11:40.000Z,9.24
2023-03-31T20:16:34.000Z,9.29
2023-03-31T20:21:28.000Z,9.3
2023-03-31T20:26:23.000Z,9.34
2023-03-31T20:31:16.000Z,9.3
2023-03-31T20:36:10.000Z,9.3
2023-03-31T20:41:04.000Z,9.27
2023-03-31T20:45:58.000Z,9.25
2023-03-31T20:50:52.000Z,9.28
2023-03-31T20:55:47.000Z,9.38
2023-03-31T21:00:40.000Z,9.38
2023-03-31T21:05:34.000Z,9.44
2023-03-31T21:10:29.000Z,9.49
2023-03-31T21:15:23.000Z,9.44
2023-03-31T21:20:17.000Z,9.43
2023-03-31T21:25:11.000Z,9.47
2023-03-31T21:34:49.000Z,9.48
2023-03-31T21:39:42.000Z,9.55
2023-03-31T21:44:37.000Z,9.49
2023-03-31T21:49:30.000Z,9.5
2023-03-31T21:54:24.000Z,9.46
2023-03-31T21:59:18.000Z,9.51
2023-03-31T22:04:12.000Z,9.51
2023-03-31T22:09:06.000Z,9.53
2023-03-31T22:13:58.000Z,9.49
2023-03-31T22:18:51.000Z,9.5
2023-03-31T22:23:44.000Z,9.5
2023-03-31T22:28:38.000Z,9.51
2023-03-31T22:33:30.000Z,9.53
2023-03-31T22:38:25.000Z,9.49
2023-03-31T22:43:19.000Z,9.49
2023-03-31T22:48:11.000Z,9.46
2023-03-31T22:53:05.000Z,9.38
2023-03-31T22:57:57.000Z,9.34
2023-03-31T23:02:51.000Z,9.29
2023-03-31T23:07:46.000Z,9.26
2023-03-31T23:12:41.000Z,9.24
2023-03-31T23:17:35.000Z,9.26
2023-03-31T23:22:29.000Z,9.32
2023-03-31T23:27:24.000Z,9.3
2023-03-31T23:32:18.000Z,9.32
2023-03-31T23:37:12.000Z,9.25
2023-03-31T23:42:05.000Z,9.22
2023-03-31T23:46:59.000Z,9.21
2023-03-31T23:51:52.000Z,9.19
2023-03-31T23:56:43.000Z,9.15
